首页
METAR-TAF:

METAR-TAF

机场 :

伯明翰机场

伯明翰, 英格兰

纬度: 52-27N, 经度: 001-44W, 海拔: 99米

当前天气观测

该预报发布于20分钟前的10:20 UTC
风速9节,风向,在东北之间变化
温度 4°C
湿度 60%
气压 1033 hPa
能见度10公里或以上
阴天层高于3600英尺

METAR: EGBB 051020Z 08009KT 040V100 9999 OVC036 04/M03 Q1033

时间: 10:40 (10:40 UTC)

预报

该预报发布于5小时和45分钟前的04:55 UTC
预报有效从05日的 06点(UTC)到 06日的 06点(UTC)
风速7节,风向东北
能见度10公里或以上
多云层高于3500英尺
几率 30%
从 05日的 06点(UTC)到 05日的 10点(UTC)
能見度: 7000
几率 40%
从 06日的 02点(UTC)到 06日的 06点(UTC)
能見度: 4000
轻雾

TAF: EGBB 050455Z 0506/0606 04007KT 9999 BKN035 PROB30 0506/0510 7000 PROB40 0602/0606 4000 BR

超过4000个机场的气象观测和天气预报(METAR&TAF报告)。

可查询的气象台以黄色和红色小点在地图上表示。

将鼠标移到小点上方,可查看气象台名称。

然后点击查看天气观测和预报。

如需切换地图:点击带黑十字的绿色按钮放大地图;点击带横线的绿色按钮缩小地图;或者点击绿色箭头查看邻近地区的地图。


METAR-TAF: